sensor_id;sensor_type;location;lat;lon;timestamp;temperature;humidity
53422;DHT22;39319;52.944;5.928;2023-03-16T00:00:11;7.50;82.60
53422;DHT22;39319;52.944;5.928;2023-03-16T00:02:42;7.30;82.10
53422;DHT22;39319;52.944;5.928;2023-03-16T00:05:12;7.20;82.90
53422;DHT22;39319;52.944;5.928;2023-03-16T00:07:39;7.20;82.40
53422;DHT22;39319;52.944;5.928;2023-03-16T00:10:06;7.20;82.80
53422;DHT22;39319;52.944;5.928;2023-03-16T00:12:32;7.60;82.20
53422;DHT22;39319;52.944;5.928;2023-03-16T00:14:59;7.20;82.70
53422;DHT22;39319;52.944;5.928;2023-03-16T00:17:26;7.40;82.70
53422;DHT22;39319;52.944;5.928;2023-03-16T00:19:54;7.40;83.10
53422;DHT22;39319;52.944;5.928;2023-03-16T00:22:28;7.50;83.30
53422;DHT22;39319;52.944;5.928;2023-03-16T00:24:57;7.40;83.50
53422;DHT22;39319;52.944;5.928;2023-03-16T00:27:24;7.10;82.50
53422;DHT22;39319;52.944;5.928;2023-03-16T00:29:52;7.40;82.80
53422;DHT22;39319;52.944;5.928;2023-03-16T00:32:27;7.50;82.20
53422;DHT22;39319;52.944;5.928;2023-03-16T00:34:55;7.00;82.90
53422;DHT22;39319;52.944;5.928;2023-03-16T00:37:23;7.30;82.60
53422;DHT22;39319;52.944;5.928;2023-03-16T00:39:49;7.40;82.30
53422;DHT22;39319;52.944;5.928;2023-03-16T00:42:17;7.40;82.70
53422;DHT22;39319;52.944;5.928;2023-03-16T00:44:44;7.30;82.50
53422;DHT22;39319;52.944;5.928;2023-03-16T00:47:11;7.40;82.80
53422;DHT22;39319;52.944;5.928;2023-03-16T00:49:41;7.20;82.40
53422;DHT22;39319;52.944;5.928;2023-03-16T00:52:09;7.30;82.80
53422;DHT22;39319;52.944;5.928;2023-03-16T00:54:42;7.40;83.10
53422;DHT22;39319;52.944;5.928;2023-03-16T00:57:10;7.10;83.10
53422;DHT22;39319;52.944;5.928;2023-03-16T00:59:36;7.20;83.00
53422;DHT22;39319;52.944;5.928;2023-03-16T01:02:04;7.10;82.80
53422;DHT22;39319;52.944;5.928;2023-03-16T01:04:30;7.20;82.40
53422;DHT22;39319;52.944;5.928;2023-03-16T01:06:57;7.40;82.70
53422;DHT22;39319;52.944;5.928;2023-03-16T01:09:22;7.30;83.30
53422;DHT22;39319;52.944;5.928;2023-03-16T01:11:48;7.20;82.80
53422;DHT22;39319;52.944;5.928;2023-03-16T01:14:18;7.10;82.50
53422;DHT22;39319;52.944;5.928;2023-03-16T01:16:44;7.20;82.60
53422;DHT22;39319;52.944;5.928;2023-03-16T01:19:11;7.40;83.10
53422;DHT22;39319;52.944;5.928;2023-03-16T01:21:38;7.10;83.30
53422;DHT22;39319;52.944;5.928;2023-03-16T01:24:04;7.30;84.00
53422;DHT22;39319;52.944;5.928;2023-03-16T01:26:30;7.20;83.50
53422;DHT22;39319;52.944;5.928;2023-03-16T01:28:55;7.30;83.70
53422;DHT22;39319;52.944;5.928;2023-03-16T01:31:21;7.30;83.80
53422;DHT22;39319;52.944;5.928;2023-03-16T01:33:47;7.40;84.30
53422;DHT22;39319;52.944;5.928;2023-03-16T01:36:15;7.00;84.00
53422;DHT22;39319;52.944;5.928;2023-03-16T01:38:41;7.30;84.50
53422;DHT22;39319;52.944;5.928;2023-03-16T01:41:07;7.20;84.60
53422;DHT22;39319;52.944;5.928;2023-03-16T01:43:35;7.10;84.80
53422;DHT22;39319;52.944;5.928;2023-03-16T01:48:32;7.50;85.30
53422;DHT22;39319;52.944;5.928;2023-03-16T01:51:21;7.10;85.30
53422;DHT22;39319;52.944;5.928;2023-03-16T01:53:50;7.00;84.40
53422;DHT22;39319;52.944;5.928;2023-03-16T01:56:21;7.30;85.10
53422;DHT22;39319;52.944;5.928;2023-03-16T01:58:49;7.40;85.00
53422;DHT22;39319;52.944;5.928;2023-03-16T02:01:17;7.40;85.40
53422;DHT22;39319;52.944;5.928;2023-03-16T02:03:43;7.00;84.50
53422;DHT22;39319;52.944;5.928;2023-03-16T02:06:15;7.30;84.90
53422;DHT22;39319;52.944;5.928;2023-03-16T02:08:43;7.10;85.20
53422;DHT22;39319;52.944;5.928;2023-03-16T02:11:10;7.70;85.70
53422;DHT22;39319;52.944;5.928;2023-03-16T02:13:37;7.20;85.30
53422;DHT22;39319;52.944;5.928;2023-03-16T02:16:07;7.20;85.40
53422;DHT22;39319;52.944;5.928;2023-03-16T02:18:34;7.00;84.80
53422;DHT22;39319;52.944;5.928;2023-03-16T02:21:28;7.40;86.00
53422;DHT22;39319;52.944;5.928;2023-03-16T02:23:59;7.30;86.00
53422;DHT22;39319;52.944;5.928;2023-03-16T02:32:11;7.10;85.00
53422;DHT22;39319;52.944;5.928;2023-03-16T02:34:38;7.10;85.70
53422;DHT22;39319;52.944;5.928;2023-03-16T02:37:06;7.20;86.00
53422;DHT22;39319;52.944;5.928;2023-03-16T02:39:33;7.10;86.20
53422;DHT22;39319;52.944;5.928;2023-03-16T02:42:00;7.20;85.40
53422;DHT22;39319;52.944;5.928;2023-03-16T02:44:36;7.30;85.30
53422;DHT22;39319;52.944;5.928;2023-03-16T02:47:10;7.10;85.70
53422;DHT22;39319;52.944;5.928;2023-03-16T02:49:43;7.30;86.30
53422;DHT22;39319;52.944;5.928;2023-03-16T02:52:09;7.20;85.40
53422;DHT22;39319;52.944;5.928;2023-03-16T02:54:35;7.40;85.70
53422;DHT22;39319;52.944;5.928;2023-03-16T02:57:01;7.10;85.40
53422;DHT22;39319;52.944;5.928;2023-03-16T02:59:27;7.10;85.50
53422;DHT22;39319;52.944;5.928;2023-03-16T03:01:53;7.00;85.60
53422;DHT22;39319;52.944;5.928;2023-03-16T03:04:19;7.40;86.40
53422;DHT22;39319;52.944;5.928;2023-03-16T03:06:48;7.20;86.10
53422;DHT22;39319;52.944;5.928;2023-03-16T03:09:14;7.20;85.80
53422;DHT22;39319;52.944;5.928;2023-03-16T03:11:40;7.40;85.90
53422;DHT22;39319;52.944;5.928;2023-03-16T03:14:06;7.30;85.60
53422;DHT22;39319;52.944;5.928;2023-03-16T03:16:32;7.10;85.50
53422;DHT22;39319;52.944;5.928;2023-03-16T03:18:58;7.20;86.20
53422;DHT22;39319;52.944;5.928;2023-03-16T03:21:24;7.30;86.10
53422;DHT22;39319;52.944;5.928;2023-03-16T03:23:50;7.10;86.40
53422;DHT22;39319;52.944;5.928;2023-03-16T03:26:16;7.50;86.50
53422;DHT22;39319;52.944;5.928;2023-03-16T03:28:43;7.50;86.50
53422;DHT22;39319;52.944;5.928;2023-03-16T03:31:16;7.30;86.20
53422;DHT22;39319;52.944;5.928;2023-03-16T03:33:43;7.30;86.50
53422;DHT22;39319;52.944;5.928;2023-03-16T03:36:10;7.60;86.30
53422;DHT22;39319;52.944;5.928;2023-03-16T03:38:36;7.40;86.60
53422;DHT22;39319;52.944;5.928;2023-03-16T03:41:03;7.50;87.00
53422;DHT22;39319;52.944;5.928;2023-03-16T03:43:29;7.20;87.10
53422;DHT22;39319;52.944;5.928;2023-03-16T03:45:56;7.20;86.80
53422;DHT22;39319;52.944;5.928;2023-03-16T03:48:23;7.50;86.60
53422;DHT22;39319;52.944;5.928;2023-03-16T03:50:49;7.40;86.90
53422;DHT22;39319;52.944;5.928;2023-03-16T03:53:15;7.50;87.10
53422;DHT22;39319;52.944;5.928;2023-03-16T03:55:41;6.90;87.10
53422;DHT22;39319;52.944;5.928;2023-03-16T03:58:06;7.40;87.10
53422;DHT22;39319;52.944;5.928;2023-03-16T04:00:32;7.10;87.20
53422;DHT22;39319;52.944;5.928;2023-03-16T04:02:58;7.60;87.10
53422;DHT22;39319;52.944;5.928;2023-03-16T04:05:24;7.50;87.50
53422;DHT22;39319;52.944;5.928;2023-03-16T04:07:55;7.30;87.20
53422;DHT22;39319;52.944;5.928;2023-03-16T04:10:26;7.30;87.20
53422;DHT22;39319;52.944;5.928;2023-03-16T04:12:57;7.20;87.00
53422;DHT22;39319;52.944;5.928;2023-03-16T04:15:23;7.40;87.20
53422;DHT22;39319;52.944;5.928;2023-03-16T04:17:49;8.00;87.80
53422;DHT22;39319;52.944;5.928;2023-03-16T04:20:17;7.30;87.80
53422;DHT22;39319;52.944;5.928;2023-03-16T04:22:45;7.30;88.10
53422;DHT22;39319;52.944;5.928;2023-03-16T04:25:13;7.30;87.90
53422;DHT22;39319;52.944;5.928;2023-03-16T04:27:40;7.30;87.80
53422;DHT22;39319;52.944;5.928;2023-03-16T04:30:08;7.40;88.10
53422;DHT22;39319;52.944;5.928;2023-03-16T04:32:36;7.10;87.70
53422;DHT22;39319;52.944;5.928;2023-03-16T04:35:02;7.20;88.20
53422;DHT22;39319;52.944;5.928;2023-03-16T04:37:28;7.40;88.70
53422;DHT22;39319;52.944;5.928;2023-03-16T04:39:54;7.10;88.90
53422;DHT22;39319;52.944;5.928;2023-03-16T04:42:20;7.20;89.20
53422;DHT22;39319;52.944;5.928;2023-03-16T04:44:46;7.30;89.80
53422;DHT22;39319;52.944;5.928;2023-03-16T04:47:14;7.30;90.00
53422;DHT22;39319;52.944;5.928;2023-03-16T04:49:40;7.30;90.00
53422;DHT22;39319;52.944;5.928;2023-03-16T04:52:07;7.20;90.20
53422;DHT22;39319;52.944;5.928;2023-03-16T04:54:33;7.30;90.30
53422;DHT22;39319;52.944;5.928;2023-03-16T04:56:59;7.40;90.70
53422;DHT22;39319;52.944;5.928;2023-03-16T04:59:26;7.50;91.00
53422;DHT22;39319;52.944;5.928;2023-03-16T05:01:51;7.00;90.90
53422;DHT22;39319;52.944;5.928;2023-03-16T05:04:18;7.30;90.70
53422;DHT22;39319;52.944;5.928;2023-03-16T05:06:44;7.10;90.80
53422;DHT22;39319;52.944;5.928;2023-03-16T05:09:10;7.20;90.80
53422;DHT22;39319;52.944;5.928;2023-03-16T05:11:36;7.30;91.10
53422;DHT22;39319;52.944;5.928;2023-03-16T05:14:02;7.20;91.30
53422;DHT22;39319;52.944;5.928;2023-03-16T05:16:31;7.20;91.20
53422;DHT22;39319;52.944;5.928;2023-03-16T05:18:58;7.30;91.20
53422;DHT22;39319;52.944;5.928;2023-03-16T05:21:24;7.00;91.20
53422;DHT22;39319;52.944;5.928;2023-03-16T05:23:49;7.10;91.10
53422;DHT22;39319;52.944;5.928;2023-03-16T05:26:16;7.20;91.20
53422;DHT22;39319;52.944;5.928;2023-03-16T05:28:43;7.00;91.10
53422;DHT22;39319;52.944;5.928;2023-03-16T05:31:09;7.10;91.30
53422;DHT22;39319;52.944;5.928;2023-03-16T05:33:35;7.00;91.10
53422;DHT22;39319;52.944;5.928;2023-03-16T05:36:01;7.30;91.40
53422;DHT22;39319;52.944;5.928;2023-03-16T05:38:28;7.10;91.60
53422;DHT22;39319;52.944;5.928;2023-03-16T05:40:56;7.10;91.50
53422;DHT22;39319;52.944;5.928;2023-03-16T05:43:26;7.00;91.50
53422;DHT22;39319;52.944;5.928;2023-03-16T05:45:55;7.10;91.60
53422;DHT22;39319;52.944;5.928;2023-03-16T05:48:22;7.40;91.70
53422;DHT22;39319;52.944;5.928;2023-03-16T05:50:50;7.00;91.80
53422;DHT22;39319;52.944;5.928;2023-03-16T05:53:17;7.10;91.90
53422;DHT22;39319;52.944;5.928;2023-03-16T05:55:43;7.00;91.60
53422;DHT22;39319;52.944;5.928;2023-03-16T05:58:09;7.20;91.60
53422;DHT22;39319;52.944;5.928;2023-03-16T06:00:36;7.00;91.70
53422;DHT22;39319;52.944;5.928;2023-03-16T06:03:04;7.00;91.80
53422;DHT22;39319;52.944;5.928;2023-03-16T06:05:29;7.10;91.80
53422;DHT22;39319;52.944;5.928;2023-03-16T06:07:56;6.90;91.70
53422;DHT22;39319;52.944;5.928;2023-03-16T06:10:22;7.20;91.80
53422;DHT22;39319;52.944;5.928;2023-03-16T06:12:48;7.10;91.60
53422;DHT22;39319;52.944;5.928;2023-03-16T06:15:14;7.40;91.70
53422;DHT22;39319;52.944;5.928;2023-03-16T06:17:40;7.10;91.60
53422;DHT22;39319;52.944;5.928;2023-03-16T06:20:07;6.90;91.90
53422;DHT22;39319;52.944;5.928;2023-03-16T06:22:40;7.10;91.70
53422;DHT22;39319;52.944;5.928;2023-03-16T06:25:06;7.30;91.80
53422;DHT22;39319;52.944;5.928;2023-03-16T06:27:34;7.00;91.90
53422;DHT22;39319;52.944;5.928;2023-03-16T06:30:00;7.10;92.00
53422;DHT22;39319;52.944;5.928;2023-03-16T06:32:26;7.00;92.00
53422;DHT22;39319;52.944;5.928;2023-03-16T06:34:52;7.20;92.30
53422;DHT22;39319;52.944;5.928;2023-03-16T06:37:17;7.00;92.20
53422;DHT22;39319;52.944;5.928;2023-03-16T06:39:43;7.20;92.40
53422;DHT22;39319;52.944;5.928;2023-03-16T06:42:09;7.00;92.00
53422;DHT22;39319;52.944;5.928;2023-03-16T06:44:35;7.30;92.20
53422;DHT22;39319;52.944;5.928;2023-03-16T06:47:02;7.00;92.10
53422;DHT22;39319;52.944;5.928;2023-03-16T06:49:31;7.30;92.30
53422;DHT22;39319;52.944;5.928;2023-03-16T06:51:56;7.30;92.30
53422;DHT22;39319;52.944;5.928;2023-03-16T06:54:23;7.40;92.20
53422;DHT22;39319;52.944;5.928;2023-03-16T06:56:49;7.50;92.20
53422;DHT22;39319;52.944;5.928;2023-03-16T06:59:16;7.40;92.20
53422;DHT22;39319;52.944;5.928;2023-03-16T07:01:42;7.30;92.20
53422;DHT22;39319;52.944;5.928;2023-03-16T07:04:10;7.20;92.50
53422;DHT22;39319;52.944;5.928;2023-03-16T07:06:37;7.20;92.10
53422;DHT22;39319;52.944;5.928;2023-03-16T07:09:03;7.00;92.20
53422;DHT22;39319;52.944;5.928;2023-03-16T07:11:30;7.50;92.70
53422;DHT22;39319;52.944;5.928;2023-03-16T07:13:57;7.50;92.80
53422;DHT22;39319;52.944;5.928;2023-03-16T07:16:23;7.10;93.30
53422;DHT22;39319;52.944;5.928;2023-03-16T07:18:49;7.00;93.00
53422;DHT22;39319;52.944;5.928;2023-03-16T07:21:17;7.50;93.30
53422;DHT22;39319;52.944;5.928;2023-03-16T07:23:42;7.50;93.50
53422;DHT22;39319;52.944;5.928;2023-03-16T07:26:10;7.40;93.30
53422;DHT22;39319;52.944;5.928;2023-03-16T07:28:37;7.10;93.30
53422;DHT22;39319;52.944;5.928;2023-03-16T07:31:04;7.30;93.10
53422;DHT22;39319;52.944;5.928;2023-03-16T07:33:31;7.30;93.50
53422;DHT22;39319;52.944;5.928;2023-03-16T07:35:57;7.40;93.50
53422;DHT22;39319;52.944;5.928;2023-03-16T07:38:23;7.50;93.50
53422;DHT22;39319;52.944;5.928;2023-03-16T07:40:48;7.20;93.10
53422;DHT22;39319;52.944;5.928;2023-03-16T07:43:14;7.50;93.40
53422;DHT22;39319;52.944;5.928;2023-03-16T07:45:40;7.20;93.50
53422;DHT22;39319;52.944;5.928;2023-03-16T07:48:08;7.40;93.60
53422;DHT22;39319;52.944;5.928;2023-03-16T07:50:34;7.40;93.90
53422;DHT22;39319;52.944;5.928;2023-03-16T07:52:59;7.50;94.10
53422;DHT22;39319;52.944;5.928;2023-03-16T07:55:25;7.40;94.00
53422;DHT22;39319;52.944;5.928;2023-03-16T07:57:51;7.50;94.30
53422;DHT22;39319;52.944;5.928;2023-03-16T08:00:17;7.60;94.40
53422;DHT22;39319;52.944;5.928;2023-03-16T08:02:48;7.50;94.40
53422;DHT22;39319;52.944;5.928;2023-03-16T08:05:14;7.60;94.50
53422;DHT22;39319;52.944;5.928;2023-03-16T08:07:40;7.40;94.40
53422;DHT22;39319;52.944;5.928;2023-03-16T08:10:06;7.50;94.60
53422;DHT22;39319;52.944;5.928;2023-03-16T08:12:32;7.20;94.90
53422;DHT22;39319;52.944;5.928;2023-03-16T08:14:58;7.20;95.10
53422;DHT22;39319;52.944;5.928;2023-03-16T08:17:24;7.50;95.50
53422;DHT22;39319;52.944;5.928;2023-03-16T08:19:49;7.40;95.60
53422;DHT22;39319;52.944;5.928;2023-03-16T08:22:15;7.40;95.40
53422;DHT22;39319;52.944;5.928;2023-03-16T08:24:41;7.50;95.30
53422;DHT22;39319;52.944;5.928;2023-03-16T08:27:07;7.50;95.60
53422;DHT22;39319;52.944;5.928;2023-03-16T08:29:33;7.40;95.90
53422;DHT22;39319;52.944;5.928;2023-03-16T08:31:58;7.50;95.70
53422;DHT22;39319;52.944;5.928;2023-03-16T08:34:26;7.40;95.60
53422;DHT22;39319;52.944;5.928;2023-03-16T08:36:52;7.60;95.80
53422;DHT22;39319;52.944;5.928;2023-03-16T08:39:18;7.50;95.80
53422;DHT22;39319;52.944;5.928;2023-03-16T08:41:44;7.50;96.10
53422;DHT22;39319;52.944;5.928;2023-03-16T08:44:11;7.70;96.00
53422;DHT22;39319;52.944;5.928;2023-03-16T08:46:40;7.50;96.00
53422;DHT22;39319;52.944;5.928;2023-03-16T08:49:06;7.60;96.40
53422;DHT22;39319;52.944;5.928;2023-03-16T08:51:32;7.90;96.60
53422;DHT22;39319;52.944;5.928;2023-03-16T08:53:58;7.90;96.50
53422;DHT22;39319;52.944;5.928;2023-03-16T08:56:24;7.80;96.70
53422;DHT22;39319;52.944;5.928;2023-03-16T08:58:50;7.50;96.50
53422;DHT22;39319;52.944;5.928;2023-03-16T09:01:16;7.70;96.50
53422;DHT22;39319;52.944;5.928;2023-03-16T09:03:45;7.50;96.70
53422;DHT22;39319;52.944;5.928;2023-03-16T09:06:12;7.60;96.70
53422;DHT22;39319;52.944;5.928;2023-03-16T09:08:40;7.90;97.00
53422;DHT22;39319;52.944;5.928;2023-03-16T09:11:07;7.70;96.90
53422;DHT22;39319;52.944;5.928;2023-03-16T09:13:35;7.70;97.10
53422;DHT22;39319;52.944;5.928;2023-03-16T09:16:01;7.80;97.20
53422;DHT22;39319;52.944;5.928;2023-03-16T09:18:27;7.90;97.20
53422;DHT22;39319;52.944;5.928;2023-03-16T09:20:58;7.70;97.40
53422;DHT22;39319;52.944;5.928;2023-03-16T09:23:24;7.90;97.40
53422;DHT22;39319;52.944;5.928;2023-03-16T09:25:55;7.70;97.70
53422;DHT22;39319;52.944;5.928;2023-03-16T09:28:21;7.70;97.90
53422;DHT22;39319;52.944;5.928;2023-03-16T09:30:47;7.70;97.70
53422;DHT22;39319;52.944;5.928;2023-03-16T09:33:14;7.70;97.80
53422;DHT22;39319;52.944;5.928;2023-03-16T09:35:40;7.70;97.70
53422;DHT22;39319;52.944;5.928;2023-03-16T09:38:05;8.00;97.80
53422;DHT22;39319;52.944;5.928;2023-03-16T09:40:31;7.90;98.00
53422;DHT22;39319;52.944;5.928;2023-03-16T09:46:13;7.90;97.90
53422;DHT22;39319;52.944;5.928;2023-03-16T09:48:40;7.70;98.20
53422;DHT22;39319;52.944;5.928;2023-03-16T09:51:43;7.80;98.40
53422;DHT22;39319;52.944;5.928;2023-03-16T09:54:27;7.90;98.50
53422;DHT22;39319;52.944;5.928;2023-03-16T09:56:53;8.00;98.00
53422;DHT22;39319;52.944;5.928;2023-03-16T09:59:20;7.80;98.20
53422;DHT22;39319;52.944;5.928;2023-03-16T10:07:49;7.80;97.90
53422;DHT22;39319;52.944;5.928;2023-03-16T10:12:15;7.90;97.90
53422;DHT22;39319;52.944;5.928;2023-03-16T10:14:53;8.30;97.80
53422;DHT22;39319;52.944;5.928;2023-03-16T10:20:14;8.30;97.80
53422;DHT22;39319;52.944;5.928;2023-03-16T10:22:44;8.20;97.90
53422;DHT22;39319;52.944;5.928;2023-03-16T10:28:25;8.30;97.60
53422;DHT22;39319;52.944;5.928;2023-03-16T10:30:56;8.20;97.70
53422;DHT22;39319;52.944;5.928;2023-03-16T10:33:31;8.40;97.40
53422;DHT22;39319;52.944;5.928;2023-03-16T10:36:30;8.40;97.50
53422;DHT22;39319;52.944;5.928;2023-03-16T10:39:16;8.20;97.30
53422;DHT22;39319;52.944;5.928;2023-03-16T10:41:45;8.20;97.50
53422;DHT22;39319;52.944;5.928;2023-03-16T10:44:14;8.30;97.50
53422;DHT22;39319;52.944;5.928;2023-03-16T10:46:48;8.50;97.40
53422;DHT22;39319;52.944;5.928;2023-03-16T10:49:37;8.40;97.10
53422;DHT22;39319;52.944;5.928;2023-03-16T10:52:37;8.50;97.00
53422;DHT22;39319;52.944;5.928;2023-03-16T10:57:42;8.70;97.40
53422;DHT22;39319;52.944;5.928;2023-03-16T11:00:20;8.80;97.50
53422;DHT22;39319;52.944;5.928;2023-03-16T11:02:48;8.80;97.40
53422;DHT22;39319;52.944;5.928;2023-03-16T11:07:54;8.80;97.30
53422;DHT22;39319;52.944;5.928;2023-03-16T11:10:29;9.10;97.20
53422;DHT22;39319;52.944;5.928;2023-03-16T11:13:22;9.20;96.90
53422;DHT22;39319;52.944;5.928;2023-03-16T11:16:00;9.30;96.90
53422;DHT22;39319;52.944;5.928;2023-03-16T11:20:56;9.50;96.30
53422;DHT22;39319;52.944;5.928;2023-03-16T11:23:33;9.70;96.20
53422;DHT22;39319;52.944;5.928;2023-03-16T11:26:03;9.60;96.00
53422;DHT22;39319;52.944;5.928;2023-03-16T11:28:35;9.80;95.50
53422;DHT22;39319;52.944;5.928;2023-03-16T11:33:28;10.40;95.60
53422;DHT22;39319;52.944;5.928;2023-03-16T11:47:16;11.10;93.90
53422;DHT22;39319;52.944;5.928;2023-03-16T11:49:58;11.20;93.70
53422;DHT22;39319;52.944;5.928;2023-03-16T11:52:44;11.10;93.20
53422;DHT22;39319;52.944;5.928;2023-03-16T11:55:33;11.20;92.80
53422;DHT22;39319;52.944;5.928;2023-03-16T12:04:04;11.00;93.10
53422;DHT22;39319;52.944;5.928;2023-03-16T12:06:59;11.00;92.80
53422;DHT22;39319;52.944;5.928;2023-03-16T12:17:48;10.80;92.10
53422;DHT22;39319;52.944;5.928;2023-03-16T12:20:25;10.80;92.60
53422;DHT22;39319;52.944;5.928;2023-03-16T12:23:18;10.70;92.30
53422;DHT22;39319;52.944;5.928;2023-03-16T12:25:51;10.80;92.70
53422;DHT22;39319;52.944;5.928;2023-03-16T12:28:23;10.80;92.50
53422;DHT22;39319;52.944;5.928;2023-03-16T12:42:19;10.50;92.90
53422;DHT22;39319;52.944;5.928;2023-03-16T12:47:31;10.60;93.10
53422;DHT22;39319;52.944;5.928;2023-03-16T12:50:09;10.70;92.90
53422;DHT22;39319;52.944;5.928;2023-03-16T12:52:44;10.60;92.70
53422;DHT22;39319;52.944;5.928;2023-03-16T12:55:23;10.80;92.80
53422;DHT22;39319;52.944;5.928;2023-03-16T12:57:50;10.70;92.70
53422;DHT22;39319;52.944;5.928;2023-03-16T13:00:18;10.90;92.70
53422;DHT22;39319;52.944;5.928;2023-03-16T13:02:49;10.80;92.80
53422;DHT22;39319;52.944;5.928;2023-03-16T13:05:27;10.90;92.50
53422;DHT22;39319;52.944;5.928;2023-03-16T13:08:17;11.10;92.60
53422;DHT22;39319;52.944;5.928;2023-03-16T13:11:04;11.10;92.90
53422;DHT22;39319;52.944;5.928;2023-03-16T13:13:31;11.00;92.50
53422;DHT22;39319;52.944;5.928;2023-03-16T13:16:09;11.30;92.50
53422;DHT22;39319;52.944;5.928;2023-03-16T13:18:46;11.20;92.30
53422;DHT22;39319;52.944;5.928;2023-03-16T13:24:33;11.30;91.90
53422;DHT22;39319;52.944;5.928;2023-03-16T13:27:03;11.60;91.20
53422;DHT22;39319;52.944;5.928;2023-03-16T13:29:32;11.80;91.00
53422;DHT22;39319;52.944;5.928;2023-03-16T13:31:59;11.70;90.80
53422;DHT22;39319;52.944;5.928;2023-03-16T13:34:32;11.70;91.20
53422;DHT22;39319;52.944;5.928;2023-03-16T13:37:00;11.90;90.90
53422;DHT22;39319;52.944;5.928;2023-03-16T13:39:30;11.90;90.90
53422;DHT22;39319;52.944;5.928;2023-03-16T13:42:03;11.90;91.10
53422;DHT22;39319;52.944;5.928;2023-03-16T13:44:40;12.10;91.20
53422;DHT22;39319;52.944;5.928;2023-03-16T13:47:07;12.00;90.80
53422;DHT22;39319;52.944;5.928;2023-03-16T13:49:41;12.00;90.90
53422;DHT22;39319;52.944;5.928;2023-03-16T13:52:23;12.10;90.30
53422;DHT22;39319;52.944;5.928;2023-03-16T13:54:50;12.10;90.00
53422;DHT22;39319;52.944;5.928;2023-03-16T13:57:20;12.00;90.20
53422;DHT22;39319;52.944;5.928;2023-03-16T13:59:47;12.00;90.80
53422;DHT22;39319;52.944;5.928;2023-03-16T14:02:17;11.80;90.50
53422;DHT22;39319;52.944;5.928;2023-03-16T14:04:43;11.90;90.80
53422;DHT22;39319;52.944;5.928;2023-03-16T14:07:18;11.80;90.80
53422;DHT22;39319;52.944;5.928;2023-03-16T14:09:44;11.90;91.30
53422;DHT22;39319;52.944;5.928;2023-03-16T14:12:16;12.00;90.90
53422;DHT22;39319;52.944;5.928;2023-03-16T14:14:46;11.90;90.50
53422;DHT22;39319;52.944;5.928;2023-03-16T14:17:19;12.00;90.80
53422;DHT22;39319;52.944;5.928;2023-03-16T14:19:57;12.10;90.70
53422;DHT22;39319;52.944;5.928;2023-03-16T14:22:32;12.10;89.50
53422;DHT22;39319;52.944;5.928;2023-03-16T14:24:59;12.10;90.40
53422;DHT22;39319;52.944;5.928;2023-03-16T14:27:40;11.90;90.30
53422;DHT22;39319;52.944;5.928;2023-03-16T14:30:15;12.10;90.70
53422;DHT22;39319;52.944;5.928;2023-03-16T14:32:41;12.10;90.30
53422;DHT22;39319;52.944;5.928;2023-03-16T14:35:20;12.20;90.30
53422;DHT22;39319;52.944;5.928;2023-03-16T14:37:46;12.30;90.20
53422;DHT22;39319;52.944;5.928;2023-03-16T14:40:29;12.30;90.00
53422;DHT22;39319;52.944;5.928;2023-03-16T14:42:57;12.40;88.20
53422;DHT22;39319;52.944;5.928;2023-03-16T14:45:32;12.40;88.20
53422;DHT22;39319;52.944;5.928;2023-03-16T14:48:08;12.50;88.60
53422;DHT22;39319;52.944;5.928;2023-03-16T14:50:41;12.50;88.50
53422;DHT22;39319;52.944;5.928;2023-03-16T14:53:09;12.40;87.10
53422;DHT22;39319;52.944;5.928;2023-03-16T14:55:35;12.30;88.10
53422;DHT22;39319;52.944;5.928;2023-03-16T14:58:02;12.20;87.70
53422;DHT22;39319;52.944;5.928;2023-03-16T15:00:28;12.30;86.80
53422;DHT22;39319;52.944;5.928;2023-03-16T15:03:05;12.30;87.60
53422;DHT22;39319;52.944;5.928;2023-03-16T15:05:43;12.30;88.70
53422;DHT22;39319;52.944;5.928;2023-03-16T15:08:18;12.40;87.10
53422;DHT22;39319;52.944;5.928;2023-03-16T15:10:45;12.30;87.40
53422;DHT22;39319;52.944;5.928;2023-03-16T15:13:19;12.30;87.10
53422;DHT22;39319;52.944;5.928;2023-03-16T15:16:04;12.20;88.10
53422;DHT22;39319;52.944;5.928;2023-03-16T15:18:31;12.40;88.30
53422;DHT22;39319;52.944;5.928;2023-03-16T15:20:58;12.30;88.40
53422;DHT22;39319;52.944;5.928;2023-03-16T15:23:24;12.30;88.70
53422;DHT22;39319;52.944;5.928;2023-03-16T15:25:51;12.30;88.60
53422;DHT22;39319;52.944;5.928;2023-03-16T15:28:23;12.30;87.30
53422;DHT22;39319;52.944;5.928;2023-03-16T15:30:52;12.30;87.90
53422;DHT22;39319;52.944;5.928;2023-03-16T15:33:18;12.20;87.80
53422;DHT22;39319;52.944;5.928;2023-03-16T15:35:46;12.20;88.50
53422;DHT22;39319;52.944;5.928;2023-03-16T15:38:19;12.30;89.40
53422;DHT22;39319;52.944;5.928;2023-03-16T15:40:46;12.30;89.40
53422;DHT22;39319;52.944;5.928;2023-03-16T15:43:15;12.30;89.40
53422;DHT22;39319;52.944;5.928;2023-03-16T15:45:42;12.50;89.40
53422;DHT22;39319;52.944;5.928;2023-03-16T15:48:09;12.40;89.40
53422;DHT22;39319;52.944;5.928;2023-03-16T15:50:36;12.50;90.00
53422;DHT22;39319;52.944;5.928;2023-03-16T15:53:11;12.40;89.30
53422;DHT22;39319;52.944;5.928;2023-03-16T15:55:41;12.40;88.60
53422;DHT22;39319;52.944;5.928;2023-03-16T15:58:18;12.30;88.40
53422;DHT22;39319;52.944;5.928;2023-03-16T16:00:45;12.50;90.00
53422;DHT22;39319;52.944;5.928;2023-03-16T16:03:12;12.40;89.60
53422;DHT22;39319;52.944;5.928;2023-03-16T16:05:38;12.40;89.20
53422;DHT22;39319;52.944;5.928;2023-03-16T16:08:05;12.40;89.30
53422;DHT22;39319;52.944;5.928;2023-03-16T16:10:31;12.40;89.60
53422;DHT22;39319;52.944;5.928;2023-03-16T16:12:57;12.30;89.60
53422;DHT22;39319;52.944;5.928;2023-03-16T16:15:24;12.40;89.40
53422;DHT22;39319;52.944;5.928;2023-03-16T16:17:55;12.40;89.80
53422;DHT22;39319;52.944;5.928;2023-03-16T16:20:31;12.30;88.90
53422;DHT22;39319;52.944;5.928;2023-03-16T16:22:58;12.50;89.00
53422;DHT22;39319;52.944;5.928;2023-03-16T16:25:26;12.40;88.60
53422;DHT22;39319;52.944;5.928;2023-03-16T16:27:54;12.40;88.60
53422;DHT22;39319;52.944;5.928;2023-03-16T16:30:21;12.50;89.50
53422;DHT22;39319;52.944;5.928;2023-03-16T16:32:48;12.40;88.20
53422;DHT22;39319;52.944;5.928;2023-03-16T16:35:15;12.30;87.90
53422;DHT22;39319;52.944;5.928;2023-03-16T16:37:41;12.30;88.10
53422;DHT22;39319;52.944;5.928;2023-03-16T16:40:20;12.20;88.50
53422;DHT22;39319;52.944;5.928;2023-03-16T16:42:49;12.20;88.60
53422;DHT22;39319;52.944;5.928;2023-03-16T16:45:24;12.30;88.60
53422;DHT22;39319;52.944;5.928;2023-03-16T16:47:53;12.40;88.70
53422;DHT22;39319;52.944;5.928;2023-03-16T16:50:22;12.20;88.90
53422;DHT22;39319;52.944;5.928;2023-03-16T16:52:50;12.20;88.60
53422;DHT22;39319;52.944;5.928;2023-03-16T16:55:16;12.10;88.80
53422;DHT22;39319;52.944;5.928;2023-03-16T16:57:43;12.10;89.40
53422;DHT22;39319;52.944;5.928;2023-03-16T17:00:24;12.00;89.60
53422;DHT22;39319;52.944;5.928;2023-03-16T17:02:54;12.00;89.50
53422;DHT22;39319;52.944;5.928;2023-03-16T17:05:24;11.90;89.60
53422;DHT22;39319;52.944;5.928;2023-03-16T17:07:51;12.00;89.30
53422;DHT22;39319;52.944;5.928;2023-03-16T17:10:20;11.90;89.70
53422;DHT22;39319;52.944;5.928;2023-03-16T17:12:48;11.80;89.30